createdAt,value
2019-02-14T00:02:14.210Z,0.20
2019-02-14T00:04:41.056Z,0.20
2019-02-14T00:58:38.059Z,0.10
2019-02-14T01:01:04.902Z,-0.10
2019-02-14T01:10:53.200Z,-0.10
2019-02-14T01:28:03.561Z,-0.20
2019-02-14T02:49:03.213Z,-0.40
2019-02-14T02:53:57.208Z,-0.50
2019-02-14T02:58:51.202Z,-0.50
2019-02-14T03:01:18.046Z,-0.60
2019-02-14T03:06:12.037Z,-0.50
2019-02-14T03:55:16.583Z,-0.60
2019-02-14T03:57:43.463Z,-0.90
2019-02-14T04:00:14.910Z,-0.90
2019-02-14T04:02:41.767Z,-0.90
2019-02-14T04:05:08.803Z,-0.90
2019-02-14T04:07:35.715Z,-0.90
2019-02-14T04:17:25.546Z,-0.90
2019-02-14T04:19:52.412Z,-0.70
2019-02-14T04:22:19.233Z,-0.60
2019-02-14T04:24:46.076Z,-0.70
2019-02-14T04:27:12.919Z,-0.90
2019-02-14T04:29:39.763Z,-1.00
2019-02-14T04:32:06.606Z,-1.00
2019-02-14T04:34:33.449Z,-1.10
2019-02-14T04:37:00.293Z,-1.10
2019-02-14T04:39:27.137Z,-1.10
2019-02-14T04:41:53.980Z,-1.10
2019-02-14T11:46:30.377Z,-1.30
2019-02-14T11:48:57.221Z,7.10
2019-02-14T11:51:24.065Z,7.10
2019-02-14T11:53:50.911Z,7.00
2019-02-14T11:56:18.058Z,6.90
2019-02-14T11:58:44.902Z,7.00
2019-02-14T12:01:11.743Z,7.10
2019-02-14T12:03:38.589Z,7.30
2019-02-14T12:06:05.433Z,7.50
2019-02-14T12:08:32.274Z,7.30
2019-02-14T12:10:59.117Z,7.00
2019-02-14T12:13:26.002Z,7.20
2019-02-14T12:15:52.805Z,7.20
2019-02-14T12:18:19.648Z,7.10
2019-02-14T12:20:48.339Z,7.40
2019-02-14T12:23:15.185Z,7.60
2019-02-14T12:52:45.592Z,7.90
2019-02-14T12:55:12.440Z,9.10
2019-02-14T12:57:39.279Z,9.10
2019-02-14T13:00:12.511Z,8.80
2019-02-14T13:10:01.797Z,9.00
2019-02-14T13:12:28.635Z,9.30
2019-02-14T13:14:55.478Z,9.20
2019-02-14T13:17:22.332Z,9.40
2019-02-14T13:39:31.925Z,9.60
2019-02-14T13:41:58.129Z,10.20
2019-02-14T13:44:24.979Z,10.00
2019-02-14T13:46:52.123Z,10.00
2019-02-14T13:49:18.967Z,9.80
2019-02-14T13:51:46.036Z,9.90
2019-02-14T13:54:12.963Z,10.30
2019-02-14T13:56:39.804Z,10.40
2019-02-14T14:04:00.949Z,10.40
2019-02-14T14:18:43.544Z,11.50
2019-02-14T14:21:10.695Z,12.90
2019-02-14T14:23:37.514Z,12.40
2019-02-14T14:26:04.382Z,12.60
2019-02-14T14:28:31.535Z,12.60
2019-02-14T14:30:58.376Z,13.20
2019-02-14T14:33:25.527Z,13.70
2019-02-14T14:35:52.418Z,14.40
2019-02-14T14:38:19.214Z,14.50
2019-02-14T14:40:46.363Z,14.30
2019-02-14T14:43:17.818Z,14.80
2019-02-14T14:45:46.808Z,15.50
2019-02-14T14:48:19.570Z,15.90
2019-02-14T14:50:42.645Z,16.00
2019-02-14T14:53:09.499Z,16.20
2019-02-14T14:55:36.639Z,16.10
2019-02-14T14:58:03.487Z,14.70
2019-02-14T15:00:30.329Z,15.40
2019-02-14T15:02:57.483Z,14.60
2019-02-14T15:05:24.321Z,14.60
2019-02-14T15:07:51.474Z,15.30
2019-02-14T15:10:18.315Z,14.90
2019-02-14T15:12:45.465Z,15.10
2019-02-14T15:15:12.308Z,15.40
2019-02-14T15:17:39.153Z,15.10
2019-02-14T15:20:09.609Z,14.00
2019-02-14T15:22:36.525Z,13.00
2019-02-14T15:25:03.984Z,13.50
2019-02-14T15:27:30.826Z,15.20
2019-02-14T15:29:57.978Z,16.20
2019-02-14T15:32:25.132Z,16.30
2019-02-14T15:34:51.975Z,15.70
2019-02-14T15:37:18.815Z,15.00
2019-02-14T15:39:45.965Z,14.80
2019-02-14T15:42:12.856Z,14.90
2019-02-14T15:44:39.960Z,13.90
2019-02-14T15:47:06.802Z,13.00
2019-02-14T15:49:33.645Z,12.90
2019-02-14T15:52:03.213Z,13.20
2019-02-14T15:54:30.941Z,12.80
2019-02-14T15:56:57.828Z,12.30
2019-02-14T15:59:24.705Z,12.20
2019-02-14T16:04:18.701Z,11.90
2019-02-14T16:06:45.849Z,10.20
2019-02-14T16:09:14.366Z,10.20
2019-02-14T16:16:35.691Z,10.00
2019-02-14T16:19:02.832Z,9.00
2019-02-14T16:21:31.530Z,8.60
2019-02-14T16:23:58.669Z,8.20
2019-02-14T16:26:25.513Z,8.00
2019-02-14T16:28:52.366Z,7.80
2019-02-14T16:31:19.479Z,7.80
2019-02-14T16:33:46.349Z,7.70
2019-02-14T16:36:13.199Z,7.50
2019-02-14T16:38:40.090Z,7.50
2019-02-14T16:41:06.891Z,7.30
2019-02-14T16:43:33.724Z,7.20
2019-02-14T16:46:00.874Z,7.20
2019-02-14T16:48:27.717Z,6.90
2019-02-14T16:50:54.870Z,6.70
2019-02-14T16:53:22.021Z,6.60
2019-02-14T17:00:43.162Z,6.80
2019-02-14T17:03:10.006Z,6.30
2019-02-14T17:13:00.145Z,6.10
2019-02-14T17:30:11.436Z,5.40
2019-02-14T17:32:38.331Z,4.90
2019-02-14T22:56:58.698Z,4.80
2019-02-14T22:59:25.897Z,1.20
2019-02-14T23:01:53.307Z,1.00
2019-02-14T23:04:20.151Z,0.90
2019-02-14T23:06:46.994Z,0.80
2019-02-14T23:09:14.193Z,0.80
2019-02-14T23:11:40.988Z,0.80
2019-02-14T23:14:07.831Z,0.70
2019-02-14T23:16:34.981Z,0.70
2019-02-14T23:19:01.822Z,0.70
2019-02-14T23:21:28.725Z,0.60
2019-02-14T23:23:55.511Z,0.60
2019-02-14T23:26:22.368Z,0.60
2019-02-14T23:28:49.507Z,0.60
2019-02-14T23:31:16.349Z,0.60
2019-02-14T23:33:43.192Z,0.50
2019-02-14T23:36:10.344Z,0.60
2019-02-14T23:38:37.199Z,0.60
2019-02-14T23:41:04.338Z,0.50
2019-02-14T23:43:31.487Z,0.40
2019-02-14T23:45:58.331Z,0.40
2019-02-14T23:48:25.481Z,0.40
2019-02-14T23:50:52.373Z,0.50
2019-02-14T23:53:19.167Z,0.50
2019-02-14T23:55:46.318Z,0.50
2019-02-14T23:58:13.470Z,0.50
